sensor_id;sensor_type;location;lat;lon;timestamp;temperature;humidity
51029;DHT22;37054;52.054;8.600;2023-10-08T00:01:28;23.00;55.60
51029;DHT22;37054;52.054;8.600;2023-10-08T00:03:54;22.90;55.60
51029;DHT22;37054;52.054;8.600;2023-10-08T00:06:24;22.90;55.70
51029;DHT22;37054;52.054;8.600;2023-10-08T00:08:50;22.90;55.90
51029;DHT22;37054;52.054;8.600;2023-10-08T00:11:16;22.90;56.00
51029;DHT22;37054;52.054;8.600;2023-10-08T00:13:43;22.80;56.10
51029;DHT22;37054;52.054;8.600;2023-10-08T00:16:13;22.80;56.30
51029;DHT22;37054;52.054;8.600;2023-10-08T00:18:43;22.80;56.40
51029;DHT22;37054;52.054;8.600;2023-10-08T00:21:16;22.80;56.50
51029;DHT22;37054;52.054;8.600;2023-10-08T00:23:43;22.80;56.50
51029;DHT22;37054;52.054;8.600;2023-10-08T00:26:15;22.80;56.60
51029;DHT22;37054;52.054;8.600;2023-10-08T00:28:44;22.80;56.60
51029;DHT22;37054;52.054;8.600;2023-10-08T00:31:14;22.80;56.60
51029;DHT22;37054;52.054;8.600;2023-10-08T00:33:43;22.80;56.60
51029;DHT22;37054;52.054;8.600;2023-10-08T00:36:10;22.80;56.70
51029;DHT22;37054;52.054;8.600;2023-10-08T00:38:51;22.80;56.70
51029;DHT22;37054;52.054;8.600;2023-10-08T00:41:19;22.70;56.80
51029;DHT22;37054;52.054;8.600;2023-10-08T00:43:48;22.80;56.80
51029;DHT22;37054;52.054;8.600;2023-10-08T00:46:16;22.70;56.90
51029;DHT22;37054;52.054;8.600;2023-10-08T00:48:46;22.70;57.00
51029;DHT22;37054;52.054;8.600;2023-10-08T00:51:12;22.70;57.20
51029;DHT22;37054;52.054;8.600;2023-10-08T00:53:54;22.60;57.30
51029;DHT22;37054;52.054;8.600;2023-10-08T00:56:26;22.50;57.60
51029;DHT22;37054;52.054;8.600;2023-10-08T00:59:09;22.40;58.00
51029;DHT22;37054;52.054;8.600;2023-10-08T01:01:39;22.30;58.50
51029;DHT22;37054;52.054;8.600;2023-10-08T01:04:05;22.30;58.90
51029;DHT22;37054;52.054;8.600;2023-10-08T01:06:37;22.10;57.30
51029;DHT22;37054;52.054;8.600;2023-10-08T01:09:05;21.40;57.50
51029;DHT22;37054;52.054;8.600;2023-10-08T01:11:43;20.70;59.10
51029;DHT22;37054;52.054;8.600;2023-10-08T01:14:17;20.10;60.50
51029;DHT22;37054;52.054;8.600;2023-10-08T01:16:50;19.70;61.60
51029;DHT22;37054;52.054;8.600;2023-10-08T01:19:19;19.30;62.40
51029;DHT22;37054;52.054;8.600;2023-10-08T01:21:45;19.00;63.10
51029;DHT22;37054;52.054;8.600;2023-10-08T01:24:11;18.80;63.70
51029;DHT22;37054;52.054;8.600;2023-10-08T01:26:42;18.60;64.40
51029;DHT22;37054;52.054;8.600;2023-10-08T01:29:11;18.40;64.90
51029;DHT22;37054;52.054;8.600;2023-10-08T01:31:47;18.30;65.20
51029;DHT22;37054;52.054;8.600;2023-10-08T01:34:20;18.10;65.60
51029;DHT22;37054;52.054;8.600;2023-10-08T01:36:56;18.00;66.00
51029;DHT22;37054;52.054;8.600;2023-10-08T01:39:28;17.90;66.40
51029;DHT22;37054;52.054;8.600;2023-10-08T01:41:57;17.90;66.60
51029;DHT22;37054;52.054;8.600;2023-10-08T01:44:23;17.80;66.90
51029;DHT22;37054;52.054;8.600;2023-10-08T01:46:49;17.80;67.00
51029;DHT22;37054;52.054;8.600;2023-10-08T01:49:15;17.70;67.40
51029;DHT22;37054;52.054;8.600;2023-10-08T01:51:41;17.70;67.40
51029;DHT22;37054;52.054;8.600;2023-10-08T01:54:13;17.60;67.60
51029;DHT22;37054;52.054;8.600;2023-10-08T01:56:41;17.60;67.90
51029;DHT22;37054;52.054;8.600;2023-10-08T01:59:11;17.50;68.00
51029;DHT22;37054;52.054;8.600;2023-10-08T02:01:39;17.50;68.20
51029;DHT22;37054;52.054;8.600;2023-10-08T02:04:06;17.50;68.30
51029;DHT22;37054;52.054;8.600;2023-10-08T02:06:33;17.50;68.40
51029;DHT22;37054;52.054;8.600;2023-10-08T02:09:00;17.40;68.40
51029;DHT22;37054;52.054;8.600;2023-10-08T02:11:31;17.40;68.30
51029;DHT22;37054;52.054;8.600;2023-10-08T02:13:57;17.30;68.60
51029;DHT22;37054;52.054;8.600;2023-10-08T02:16:23;17.30;68.90
51029;DHT22;37054;52.054;8.600;2023-10-08T02:18:48;17.30;68.90
51029;DHT22;37054;52.054;8.600;2023-10-08T02:21:15;17.30;69.10
51029;DHT22;37054;52.054;8.600;2023-10-08T02:23:41;17.40;68.90
51029;DHT22;37054;52.054;8.600;2023-10-08T02:26:09;17.30;68.60
51029;DHT22;37054;52.054;8.600;2023-10-08T02:28:36;17.20;68.80
51029;DHT22;37054;52.054;8.600;2023-10-08T02:31:04;17.20;68.80
51029;DHT22;37054;52.054;8.600;2023-10-08T02:33:29;17.10;69.00
51029;DHT22;37054;52.054;8.600;2023-10-08T02:35:55;17.10;69.10
51029;DHT22;37054;52.054;8.600;2023-10-08T02:38:21;17.00;69.20
51029;DHT22;37054;52.054;8.600;2023-10-08T02:40:48;17.10;69.30
51029;DHT22;37054;52.054;8.600;2023-10-08T02:43:14;17.00;69.30
51029;DHT22;37054;52.054;8.600;2023-10-08T02:45:41;17.00;69.40
51029;DHT22;37054;52.054;8.600;2023-10-08T02:48:08;16.90;69.50
51029;DHT22;37054;52.054;8.600;2023-10-08T02:50:41;16.90;69.50
51029;DHT22;37054;52.054;8.600;2023-10-08T02:53:07;16.90;69.70
51029;DHT22;37054;52.054;8.600;2023-10-08T02:55:43;16.90;69.70
51029;DHT22;37054;52.054;8.600;2023-10-08T02:58:12;16.90;69.80
51029;DHT22;37054;52.054;8.600;2023-10-08T03:00:47;16.90;69.80
51029;DHT22;37054;52.054;8.600;2023-10-08T03:03:17;16.90;69.80
51029;DHT22;37054;52.054;8.600;2023-10-08T03:05:48;16.90;69.80
51029;DHT22;37054;52.054;8.600;2023-10-08T03:08:14;16.90;70.00
51029;DHT22;37054;52.054;8.600;2023-10-08T03:10:52;16.90;70.00
51029;DHT22;37054;52.054;8.600;2023-10-08T03:13:21;16.80;69.90
51029;DHT22;37054;52.054;8.600;2023-10-08T03:15:47;16.80;70.00
51029;DHT22;37054;52.054;8.600;2023-10-08T03:18:29;16.80;69.40
51029;DHT22;37054;52.054;8.600;2023-10-08T03:21:05;16.60;69.40
51029;DHT22;37054;52.054;8.600;2023-10-08T03:23:45;16.50;69.30
51029;DHT22;37054;52.054;8.600;2023-10-08T03:26:13;16.40;69.20
51029;DHT22;37054;52.054;8.600;2023-10-08T03:29:02;16.30;69.30
51029;DHT22;37054;52.054;8.600;2023-10-08T03:31:33;16.20;69.00
51029;DHT22;37054;52.054;8.600;2023-10-08T03:34:14;16.20;69.00
51029;DHT22;37054;52.054;8.600;2023-10-08T03:36:41;16.00;69.30
51029;DHT22;37054;52.054;8.600;2023-10-08T03:39:14;16.00;69.30
51029;DHT22;37054;52.054;8.600;2023-10-08T03:41:40;15.90;69.40
51029;DHT22;37054;52.054;8.600;2023-10-08T03:44:07;15.90;69.60
51029;DHT22;37054;52.054;8.600;2023-10-08T03:46:39;15.90;69.60
51029;DHT22;37054;52.054;8.600;2023-10-08T03:49:11;15.80;69.60
51029;DHT22;37054;52.054;8.600;2023-10-08T03:51:42;15.80;69.70
51029;DHT22;37054;52.054;8.600;2023-10-08T03:54:07;15.80;69.80
51029;DHT22;37054;52.054;8.600;2023-10-08T03:56:54;15.80;69.90
51029;DHT22;37054;52.054;8.600;2023-10-08T03:59:19;15.80;69.90
51029;DHT22;37054;52.054;8.600;2023-10-08T04:02:11;15.80;69.90
51029;DHT22;37054;52.054;8.600;2023-10-08T04:04:41;15.80;69.80
51029;DHT22;37054;52.054;8.600;2023-10-08T04:07:21;15.70;69.80
51029;DHT22;37054;52.054;8.600;2023-10-08T04:10:10;15.80;69.90
51029;DHT22;37054;52.054;8.600;2023-10-08T04:12:36;15.70;69.70
51029;DHT22;37054;52.054;8.600;2023-10-08T04:15:09;15.70;69.80
51029;DHT22;37054;52.054;8.600;2023-10-08T04:17:40;15.70;69.80
51029;DHT22;37054;52.054;8.600;2023-10-08T04:20:14;15.70;69.80
51029;DHT22;37054;52.054;8.600;2023-10-08T04:22:59;15.70;69.90
51029;DHT22;37054;52.054;8.600;2023-10-08T04:25:29;15.70;69.90
51029;DHT22;37054;52.054;8.600;2023-10-08T04:27:55;15.70;69.70
51029;DHT22;37054;52.054;8.600;2023-10-08T04:30:27;15.80;69.90
51029;DHT22;37054;52.054;8.600;2023-10-08T04:33:03;15.80;69.70
51029;DHT22;37054;52.054;8.600;2023-10-08T04:35:37;15.80;69.70
51029;DHT22;37054;52.054;8.600;2023-10-08T04:38:04;15.80;69.90
51029;DHT22;37054;52.054;8.600;2023-10-08T04:40:37;15.90;70.00
51029;DHT22;37054;52.054;8.600;2023-10-08T04:43:24;16.00;69.90
51029;DHT22;37054;52.054;8.600;2023-10-08T04:46:03;16.00;70.00
51029;DHT22;37054;52.054;8.600;2023-10-08T04:48:48;16.10;70.00
51029;DHT22;37054;52.054;8.600;2023-10-08T04:51:15;16.10;70.10
51029;DHT22;37054;52.054;8.600;2023-10-08T04:53:43;16.10;70.00
51029;DHT22;37054;52.054;8.600;2023-10-08T04:56:11;16.20;69.90
51029;DHT22;37054;52.054;8.600;2023-10-08T04:58:43;16.20;69.90
51029;DHT22;37054;52.054;8.600;2023-10-08T05:01:20;16.20;69.90
51029;DHT22;37054;52.054;8.600;2023-10-08T05:03:56;16.20;69.80
51029;DHT22;37054;52.054;8.600;2023-10-08T05:06:29;16.20;69.80
51029;DHT22;37054;52.054;8.600;2023-10-08T05:08:58;16.20;69.70
51029;DHT22;37054;52.054;8.600;2023-10-08T05:11:24;16.20;69.60
51029;DHT22;37054;52.054;8.600;2023-10-08T05:13:50;16.10;69.80
51029;DHT22;37054;52.054;8.600;2023-10-08T05:16:31;16.10;69.80
51029;DHT22;37054;52.054;8.600;2023-10-08T05:19:10;16.10;69.80
51029;DHT22;37054;52.054;8.600;2023-10-08T05:21:54;16.00;69.90
51029;DHT22;37054;52.054;8.600;2023-10-08T05:24:40;16.00;70.10
51029;DHT22;37054;52.054;8.600;2023-10-08T05:27:16;16.00;70.20
51029;DHT22;37054;52.054;8.600;2023-10-08T05:30:03;16.00;70.20
51029;DHT22;37054;52.054;8.600;2023-10-08T05:32:42;16.10;70.30
51029;DHT22;37054;52.054;8.600;2023-10-08T05:35:26;16.10;70.30
51029;DHT22;37054;52.054;8.600;2023-10-08T05:40:43;16.00;70.40
51029;DHT22;37054;52.054;8.600;2023-10-08T05:43:28;16.00;70.30
51029;DHT22;37054;52.054;8.600;2023-10-08T05:46:13;15.90;70.30
51029;DHT22;37054;52.054;8.600;2023-10-08T05:48:55;15.90;70.40
51029;DHT22;37054;52.054;8.600;2023-10-08T05:51:33;16.00;70.40
51029;DHT22;37054;52.054;8.600;2023-10-08T05:54:13;16.00;70.60
51029;DHT22;37054;52.054;8.600;2023-10-08T05:57:07;16.10;70.60
51029;DHT22;37054;52.054;8.600;2023-10-08T05:59:46;16.10;70.50
51029;DHT22;37054;52.054;8.600;2023-10-08T06:02:40;16.10;70.50
51029;DHT22;37054;52.054;8.600;2023-10-08T06:05:11;16.10;70.60
51029;DHT22;37054;52.054;8.600;2023-10-08T06:10:29;16.20;70.70
51029;DHT22;37054;52.054;8.600;2023-10-08T06:13:09;16.20;70.50
51029;DHT22;37054;52.054;8.600;2023-10-08T06:15:39;16.20;70.60
51029;DHT22;37054;52.054;8.600;2023-10-08T06:18:17;16.30;70.60
51029;DHT22;37054;52.054;8.600;2023-10-08T06:20:48;16.20;70.60
51029;DHT22;37054;52.054;8.600;2023-10-08T06:23:17;16.30;70.50
51029;DHT22;37054;52.054;8.600;2023-10-08T06:25:47;16.30;70.50
51029;DHT22;37054;52.054;8.600;2023-10-08T06:28:17;16.30;70.60
51029;DHT22;37054;52.054;8.600;2023-10-08T06:30:46;16.30;70.50
51029;DHT22;37054;52.054;8.600;2023-10-08T06:33:12;16.30;70.50
51029;DHT22;37054;52.054;8.600;2023-10-08T06:35:39;16.30;70.70
51029;DHT22;37054;52.054;8.600;2023-10-08T06:38:10;16.40;70.70
51029;DHT22;37054;52.054;8.600;2023-10-08T06:40:36;16.50;70.60
51029;DHT22;37054;52.054;8.600;2023-10-08T06:43:06;16.50;70.50
51029;DHT22;37054;52.054;8.600;2023-10-08T06:45:43;16.50;70.60
51029;DHT22;37054;52.054;8.600;2023-10-08T06:48:09;16.60;70.60
51029;DHT22;37054;52.054;8.600;2023-10-08T06:50:35;16.60;70.60
51029;DHT22;37054;52.054;8.600;2023-10-08T06:53:04;16.60;70.70
51029;DHT22;37054;52.054;8.600;2023-10-08T06:55:36;16.70;70.50
51029;DHT22;37054;52.054;8.600;2023-10-08T06:58:03;16.70;70.40
51029;DHT22;37054;52.054;8.600;2023-10-08T07:00:32;16.70;70.30
51029;DHT22;37054;52.054;8.600;2023-10-08T07:03:15;16.70;70.30
51029;DHT22;37054;52.054;8.600;2023-10-08T07:05:42;16.70;70.30
51029;DHT22;37054;52.054;8.600;2023-10-08T07:08:10;16.70;70.40
51029;DHT22;37054;52.054;8.600;2023-10-08T07:10:39;16.80;70.60
51029;DHT22;37054;52.054;8.600;2023-10-08T07:13:06;16.90;70.60
51029;DHT22;37054;52.054;8.600;2023-10-08T07:15:36;16.90;70.30
51029;DHT22;37054;52.054;8.600;2023-10-08T07:18:05;16.90;70.30
51029;DHT22;37054;52.054;8.600;2023-10-08T07:20:45;17.00;70.40
51029;DHT22;37054;52.054;8.600;2023-10-08T07:23:12;17.00;70.60
51029;DHT22;37054;52.054;8.600;2023-10-08T07:26:02;17.20;70.90
51029;DHT22;37054;52.054;8.600;2023-10-08T07:28:41;17.30;71.00
51029;DHT22;37054;52.054;8.600;2023-10-08T07:31:14;17.30;71.00
51029;DHT22;37054;52.054;8.600;2023-10-08T07:33:42;17.30;70.90
51029;DHT22;37054;52.054;8.600;2023-10-08T07:36:10;17.40;70.90
51029;DHT22;37054;52.054;8.600;2023-10-08T07:38:42;17.50;70.90
51029;DHT22;37054;52.054;8.600;2023-10-08T07:41:10;17.60;71.00
51029;DHT22;37054;52.054;8.600;2023-10-08T07:43:38;17.70;71.30
51029;DHT22;37054;52.054;8.600;2023-10-08T07:46:04;17.90;71.80
51029;DHT22;37054;52.054;8.600;2023-10-08T07:48:31;18.20;71.80
51029;DHT22;37054;52.054;8.600;2023-10-08T07:50:57;18.30;71.60
51029;DHT22;37054;52.054;8.600;2023-10-08T07:53:24;18.50;71.40
51029;DHT22;37054;52.054;8.600;2023-10-08T07:55:50;18.60;71.10
51029;DHT22;37054;52.054;8.600;2023-10-08T07:58:17;18.70;71.30
51029;DHT22;37054;52.054;8.600;2023-10-08T08:00:44;18.80;71.40
51029;DHT22;37054;52.054;8.600;2023-10-08T08:03:19;19.00;71.40
51029;DHT22;37054;52.054;8.600;2023-10-08T08:05:46;19.00;71.30
51029;DHT22;37054;52.054;8.600;2023-10-08T08:08:12;19.10;71.60
51029;DHT22;37054;52.054;8.600;2023-10-08T08:10:45;19.30;72.00
51029;DHT22;37054;52.054;8.600;2023-10-08T08:13:11;19.60;72.10
51029;DHT22;37054;52.054;8.600;2023-10-08T08:15:37;19.80;72.30
51029;DHT22;37054;52.054;8.600;2023-10-08T08:18:08;20.10;72.60
51029;DHT22;37054;52.054;8.600;2023-10-08T08:20:44;20.30;71.70
51029;DHT22;37054;52.054;8.600;2023-10-08T08:23:09;20.30;71.40
51029;DHT22;37054;52.054;8.600;2023-10-08T08:25:41;20.40;71.90
51029;DHT22;37054;52.054;8.600;2023-10-08T08:28:26;20.70;73.10
51029;DHT22;37054;52.054;8.600;2023-10-08T08:30:54;21.50;75.50
51029;DHT22;37054;52.054;8.600;2023-10-08T08:33:21;22.30;75.10
51029;DHT22;37054;52.054;8.600;2023-10-08T08:36:02;23.00;73.10
51029;DHT22;37054;52.054;8.600;2023-10-08T08:38:30;23.20;71.30
51029;DHT22;37054;52.054;8.600;2023-10-08T08:41:04;23.20;70.20
51029;DHT22;37054;52.054;8.600;2023-10-08T08:43:36;23.00;69.70
51029;DHT22;37054;52.054;8.600;2023-10-08T08:46:04;22.80;69.90
51029;DHT22;37054;52.054;8.600;2023-10-08T08:48:36;22.70;69.40
51029;DHT22;37054;52.054;8.600;2023-10-08T08:51:02;22.50;69.30
51029;DHT22;37054;52.054;8.600;2023-10-08T08:53:27;22.40;69.60
51029;DHT22;37054;52.054;8.600;2023-10-08T08:55:55;22.40;69.80
51029;DHT22;37054;52.054;8.600;2023-10-08T08:58:21;22.70;71.40
51029;DHT22;37054;52.054;8.600;2023-10-08T09:00:47;23.20;72.70
51029;DHT22;37054;52.054;8.600;2023-10-08T09:03:13;23.90;73.00
51029;DHT22;37054;52.054;8.600;2023-10-08T09:05:39;24.50;72.70
51029;DHT22;37054;52.054;8.600;2023-10-08T09:08:06;24.90;70.50
51029;DHT22;37054;52.054;8.600;2023-10-08T09:10:34;24.80;68.70
51029;DHT22;37054;52.054;8.600;2023-10-08T09:13:07;24.70;67.90
51029;DHT22;37054;52.054;8.600;2023-10-08T09:15:35;24.50;67.60
51029;DHT22;37054;52.054;8.600;2023-10-08T09:18:02;24.30;67.40
51029;DHT22;37054;52.054;8.600;2023-10-08T09:20:38;24.10;67.30
51029;DHT22;37054;52.054;8.600;2023-10-08T09:23:11;24.00;67.70
51029;DHT22;37054;52.054;8.600;2023-10-08T09:25:41;24.00;68.10
51029;DHT22;37054;52.054;8.600;2023-10-08T09:28:07;24.10;68.20
51029;DHT22;37054;52.054;8.600;2023-10-08T09:30:34;24.00;67.80
51029;DHT22;37054;52.054;8.600;2023-10-08T09:33:05;23.90;67.10
51029;DHT22;37054;52.054;8.600;2023-10-08T09:35:31;23.80;67.10
51029;DHT22;37054;52.054;8.600;2023-10-08T09:37:58;23.60;67.70
51029;DHT22;37054;52.054;8.600;2023-10-08T09:40:24;23.70;68.70
51029;DHT22;37054;52.054;8.600;2023-10-08T09:42:51;23.70;68.10
51029;DHT22;37054;52.054;8.600;2023-10-08T09:45:17;23.70;68.10
51029;DHT22;37054;52.054;8.600;2023-10-08T09:47:58;23.70;67.40
51029;DHT22;37054;52.054;8.600;2023-10-08T09:50:32;23.70;68.80
51029;DHT22;37054;52.054;8.600;2023-10-08T09:53:19;23.80;68.80
51029;DHT22;37054;52.054;8.600;2023-10-08T09:55:54;23.90;69.20
51029;DHT22;37054;52.054;8.600;2023-10-08T09:58:21;24.20;69.00
51029;DHT22;37054;52.054;8.600;2023-10-08T10:00:48;24.30;68.80
51029;DHT22;37054;52.054;8.600;2023-10-08T10:03:15;24.20;67.70
51029;DHT22;37054;52.054;8.600;2023-10-08T10:05:44;24.30;66.90
51029;DHT22;37054;52.054;8.600;2023-10-08T10:08:10;24.30;66.80
51029;DHT22;37054;52.054;8.600;2023-10-08T10:10:36;24.40;67.30
51029;DHT22;37054;52.054;8.600;2023-10-08T10:13:04;24.50;67.90
51029;DHT22;37054;52.054;8.600;2023-10-08T10:15:34;24.60;67.80
51029;DHT22;37054;52.054;8.600;2023-10-08T10:18:13;24.80;67.10
51029;DHT22;37054;52.054;8.600;2023-10-08T10:23:45;25.00;67.40
51029;DHT22;37054;52.054;8.600;2023-10-08T10:26:25;25.20;66.60
51029;DHT22;37054;52.054;8.600;2023-10-08T10:31:44;25.30;65.70
51029;DHT22;37054;52.054;8.600;2023-10-08T10:34:16;25.30;65.00
51029;DHT22;37054;52.054;8.600;2023-10-08T10:36:44;25.30;66.00
51029;DHT22;37054;52.054;8.600;2023-10-08T10:39:13;25.40;65.70
51029;DHT22;37054;52.054;8.600;2023-10-08T10:41:52;25.50;65.30
51029;DHT22;37054;52.054;8.600;2023-10-08T10:44:23;25.40;63.70
51029;DHT22;37054;52.054;8.600;2023-10-08T10:46:49;25.40;63.60
51029;DHT22;37054;52.054;8.600;2023-10-08T10:49:18;25.30;62.60
51029;DHT22;37054;52.054;8.600;2023-10-08T10:51:50;25.30;63.80
51029;DHT22;37054;52.054;8.600;2023-10-08T10:54:25;25.30;62.30
51029;DHT22;37054;52.054;8.600;2023-10-08T10:56:52;25.30;58.80
51029;DHT22;37054;52.054;8.600;2023-10-08T10:59:38;25.30;60.30
51029;DHT22;37054;52.054;8.600;2023-10-08T11:02:04;25.30;61.90
51029;DHT22;37054;52.054;8.600;2023-10-08T11:04:35;25.60;63.20
51029;DHT22;37054;52.054;8.600;2023-10-08T11:07:15;25.90;62.90
51029;DHT22;37054;52.054;8.600;2023-10-08T11:09:43;26.10;61.00
51029;DHT22;37054;52.054;8.600;2023-10-08T11:12:12;26.20;57.60
51029;DHT22;37054;52.054;8.600;2023-10-08T11:14:42;26.10;55.90
51029;DHT22;37054;52.054;8.600;2023-10-08T11:17:14;26.10;56.50
51029;DHT22;37054;52.054;8.600;2023-10-08T11:19:41;26.00;56.10
51029;DHT22;37054;52.054;8.600;2023-10-08T11:22:08;26.00;55.20
51029;DHT22;37054;52.054;8.600;2023-10-08T11:24:41;26.10;55.60
51029;DHT22;37054;52.054;8.600;2023-10-08T11:27:08;26.40;58.40
51029;DHT22;37054;52.054;8.600;2023-10-08T11:29:53;26.80;55.90
51029;DHT22;37054;52.054;8.600;2023-10-08T11:32:23;27.00;52.90
51029;DHT22;37054;52.054;8.600;2023-10-08T11:34:58;27.00;52.50
51029;DHT22;37054;52.054;8.600;2023-10-08T11:37:45;27.00;50.70
51029;DHT22;37054;52.054;8.600;2023-10-08T11:40:22;27.00;50.40
51029;DHT22;37054;52.054;8.600;2023-10-08T11:42:54;27.00;49.30
51029;DHT22;37054;52.054;8.600;2023-10-08T11:45:22;26.80;48.30
51029;DHT22;37054;52.054;8.600;2023-10-08T11:48:06;26.70;48.50
51029;DHT22;37054;52.054;8.600;2023-10-08T11:50:37;26.70;48.90
51029;DHT22;37054;52.054;8.600;2023-10-08T11:53:04;26.70;48.60
51029;DHT22;37054;52.054;8.600;2023-10-08T11:55:33;26.60;48.10
51029;DHT22;37054;52.054;8.600;2023-10-08T11:58:01;26.50;47.10
51029;DHT22;37054;52.054;8.600;2023-10-08T12:00:38;26.20;46.80
51029;DHT22;37054;52.054;8.600;2023-10-08T12:03:10;26.00;46.10
51029;DHT22;37054;52.054;8.600;2023-10-08T12:05:36;25.70;46.60
51029;DHT22;37054;52.054;8.600;2023-10-08T12:08:04;25.50;47.20
51029;DHT22;37054;52.054;8.600;2023-10-08T12:10:33;25.40;47.80
51029;DHT22;37054;52.054;8.600;2023-10-08T12:13:00;25.30;47.70
51029;DHT22;37054;52.054;8.600;2023-10-08T12:15:26;25.30;45.30
51029;DHT22;37054;52.054;8.600;2023-10-08T12:18:00;25.10;46.00
51029;DHT22;37054;52.054;8.600;2023-10-08T12:20:38;25.00;46.00
51029;DHT22;37054;52.054;8.600;2023-10-08T12:23:05;25.00;46.00
51029;DHT22;37054;52.054;8.600;2023-10-08T12:25:32;25.00;45.30
51029;DHT22;37054;52.054;8.600;2023-10-08T12:27:59;25.00;44.90
51029;DHT22;37054;52.054;8.600;2023-10-08T12:30:30;24.90;45.10
51029;DHT22;37054;52.054;8.600;2023-10-08T12:33:00;24.90;44.20
51029;DHT22;37054;52.054;8.600;2023-10-08T12:35:27;24.80;43.80
51029;DHT22;37054;52.054;8.600;2023-10-08T12:37:55;24.70;44.30
51029;DHT22;37054;52.054;8.600;2023-10-08T12:40:20;24.80;44.70
51029;DHT22;37054;52.054;8.600;2023-10-08T12:42:52;24.90;45.20
51029;DHT22;37054;52.054;8.600;2023-10-08T12:45:18;25.00;44.60
51029;DHT22;37054;52.054;8.600;2023-10-08T12:47:48;25.00;44.30
51029;DHT22;37054;52.054;8.600;2023-10-08T12:50:16;24.90;43.60
51029;DHT22;37054;52.054;8.600;2023-10-08T12:52:45;24.90;43.40
51029;DHT22;37054;52.054;8.600;2023-10-08T12:55:19;24.80;43.20
51029;DHT22;37054;52.054;8.600;2023-10-08T12:57:52;24.70;42.90
51029;DHT22;37054;52.054;8.600;2023-10-08T13:00:24;24.60;42.40
51029;DHT22;37054;52.054;8.600;2023-10-08T13:02:51;24.50;42.70
51029;DHT22;37054;52.054;8.600;2023-10-08T13:05:22;24.50;42.60
51029;DHT22;37054;52.054;8.600;2023-10-08T13:07:55;24.40;42.40
51029;DHT22;37054;52.054;8.600;2023-10-08T13:10:22;24.40;42.60
51029;DHT22;37054;52.054;8.600;2023-10-08T13:12:48;24.30;42.40
51029;DHT22;37054;52.054;8.600;2023-10-08T13:15:14;24.20;42.80
51029;DHT22;37054;52.054;8.600;2023-10-08T13:17:40;24.30;42.90
51029;DHT22;37054;52.054;8.600;2023-10-08T13:20:11;24.20;42.90
51029;DHT22;37054;52.054;8.600;2023-10-08T13:22:38;24.10;43.00
51029;DHT22;37054;52.054;8.600;2023-10-08T13:25:04;24.00;43.50
51029;DHT22;37054;52.054;8.600;2023-10-08T13:27:30;24.00;43.60
51029;DHT22;37054;52.054;8.600;2023-10-08T13:29:56;23.80;43.80
51029;DHT22;37054;52.054;8.600;2023-10-08T13:32:21;23.80;44.20
51029;DHT22;37054;52.054;8.600;2023-10-08T13:34:47;23.80;44.60
51029;DHT22;37054;52.054;8.600;2023-10-08T13:37:13;23.80;44.80
51029;DHT22;37054;52.054;8.600;2023-10-08T13:39:41;23.80;44.20
51029;DHT22;37054;52.054;8.600;2023-10-08T13:42:06;23.70;44.10
51029;DHT22;37054;52.054;8.600;2023-10-08T13:44:32;23.70;44.50
51029;DHT22;37054;52.054;8.600;2023-10-08T13:46:58;23.70;43.60
51029;DHT22;37054;52.054;8.600;2023-10-08T13:49:25;23.70;43.80
51029;DHT22;37054;52.054;8.600;2023-10-08T13:51:54;23.60;44.00
51029;DHT22;37054;52.054;8.600;2023-10-08T13:54:23;23.70;44.50
51029;DHT22;37054;52.054;8.600;2023-10-08T13:56:54;23.70;43.90
51029;DHT22;37054;52.054;8.600;2023-10-08T13:59:20;23.60;43.60
51029;DHT22;37054;52.054;8.600;2023-10-08T14:01:50;23.60;43.70
51029;DHT22;37054;52.054;8.600;2023-10-08T14:04:20;23.60;43.40
51029;DHT22;37054;52.054;8.600;2023-10-08T14:06:48;23.50;43.60
51029;DHT22;37054;52.054;8.600;2023-10-08T14:09:17;23.50;43.90
51029;DHT22;37054;52.054;8.600;2023-10-08T14:11:48;23.60;44.30
51029;DHT22;37054;52.054;8.600;2023-10-08T14:14:15;23.60;44.10
51029;DHT22;37054;52.054;8.600;2023-10-08T14:16:43;23.70;44.20
51029;DHT22;37054;52.054;8.600;2023-10-08T14:19:12;23.80;43.80
51029;DHT22;37054;52.054;8.600;2023-10-08T14:21:39;23.80;43.30
51029;DHT22;37054;52.054;8.600;2023-10-08T14:24:16;23.80;43.70
51029;DHT22;37054;52.054;8.600;2023-10-08T14:26:42;23.90;43.90
51029;DHT22;37054;52.054;8.600;2023-10-08T14:29:08;24.00;43.60
51029;DHT22;37054;52.054;8.600;2023-10-08T14:31:40;23.90;43.40
51029;DHT22;37054;52.054;8.600;2023-10-08T14:34:07;23.80;42.90
51029;DHT22;37054;52.054;8.600;2023-10-08T14:36:43;23.50;43.10
51029;DHT22;37054;52.054;8.600;2023-10-08T14:39:27;23.30;43.60
51029;DHT22;37054;52.054;8.600;2023-10-08T14:42:16;23.20;43.80
51029;DHT22;37054;52.054;8.600;2023-10-08T14:45:00;22.90;43.70
51029;DHT22;37054;52.054;8.600;2023-10-08T14:47:26;22.70;43.60
51029;DHT22;37054;52.054;8.600;2023-10-08T14:49:52;22.40;43.90
51029;DHT22;37054;52.054;8.600;2023-10-08T14:52:18;22.30;44.30
51029;DHT22;37054;52.054;8.600;2023-10-08T14:54:44;22.10;44.50
51029;DHT22;37054;52.054;8.600;2023-10-08T14:57:11;22.00;44.80
51029;DHT22;37054;52.054;8.600;2023-10-08T14:59:42;21.80;44.90
51029;DHT22;37054;52.054;8.600;2023-10-08T15:02:08;21.70;45.20
51029;DHT22;37054;52.054;8.600;2023-10-08T15:04:36;21.70;45.60
51029;DHT22;37054;52.054;8.600;2023-10-08T15:07:05;21.60;45.80
51029;DHT22;37054;52.054;8.600;2023-10-08T15:09:34;21.70;45.90
51029;DHT22;37054;52.054;8.600;2023-10-08T15:11:59;21.60;46.10
51029;DHT22;37054;52.054;8.600;2023-10-08T15:14:25;21.60;46.10
51029;DHT22;37054;52.054;8.600;2023-10-08T15:16:52;21.60;46.10
51029;DHT22;37054;52.054;8.600;2023-10-08T15:19:21;21.70;46.10
51029;DHT22;37054;52.054;8.600;2023-10-08T15:21:48;21.60;46.40
51029;DHT22;37054;52.054;8.600;2023-10-08T15:24:21;21.70;46.20
51029;DHT22;37054;52.054;8.600;2023-10-08T15:26:50;21.60;46.20
51029;DHT22;37054;52.054;8.600;2023-10-08T15:29:21;21.60;46.30
51029;DHT22;37054;52.054;8.600;2023-10-08T15:31:47;21.60;46.40
51029;DHT22;37054;52.054;8.600;2023-10-08T15:34:14;21.60;46.40
51029;DHT22;37054;52.054;8.600;2023-10-08T15:36:40;21.50;46.30
51029;DHT22;37054;52.054;8.600;2023-10-08T15:39:06;21.50;46.50
51029;DHT22;37054;52.054;8.600;2023-10-08T15:41:37;21.40;46.60
51029;DHT22;37054;52.054;8.600;2023-10-08T15:44:04;21.30;46.60
51029;DHT22;37054;52.054;8.600;2023-10-08T15:46:30;21.30;46.70
51029;DHT22;37054;52.054;8.600;2023-10-08T15:48:56;21.20;46.90
51029;DHT22;37054;52.054;8.600;2023-10-08T15:51:22;21.10;47.10
51029;DHT22;37054;52.054;8.600;2023-10-08T15:53:50;21.00;47.10
51029;DHT22;37054;52.054;8.600;2023-10-08T15:56:16;20.90;47.30
51029;DHT22;37054;52.054;8.600;2023-10-08T15:58:41;20.90;47.50
51029;DHT22;37054;52.054;8.600;2023-10-08T16:01:07;20.80;47.70
51029;DHT22;37054;52.054;8.600;2023-10-08T16:03:33;20.70;47.80